sensor_id;sensor_type;location;lat;lon;timestamp;pressure;altitude;pressure_sealevel;temperature;humidity
61292;BME280;47165;42.664;23.368;2022-08-03T00:00:04;95032.41;;;23.60;46.80
61292;BME280;47165;42.664;23.368;2022-08-03T00:02:30;95038.91;;;23.57;47.17
61292;BME280;47165;42.664;23.368;2022-08-03T00:04:56;95039.22;;;23.54;46.22
61292;BME280;47165;42.664;23.368;2022-08-03T00:07:21;95039.72;;;23.49;47.19
61292;BME280;47165;42.664;23.368;2022-08-03T00:09:47;95033.06;;;23.45;46.47
61292;BME280;47165;42.664;23.368;2022-08-03T00:12:12;95029.06;;;23.41;48.29
61292;BME280;47165;42.664;23.368;2022-08-03T00:14:38;95030.75;;;23.34;48.19
61292;BME280;47165;42.664;23.368;2022-08-03T00:17:03;95036.72;;;23.28;48.64
61292;BME280;47165;42.664;23.368;2022-08-03T00:19:28;95037.19;;;23.23;47.42
61292;BME280;47165;42.664;23.368;2022-08-03T00:21:54;95031.06;;;23.23;47.91
61292;BME280;47165;42.664;23.368;2022-08-03T00:24:20;95030.38;;;23.21;46.87
61292;BME280;47165;42.664;23.368;2022-08-03T00:26:45;95025.72;;;23.15;48.62
61292;BME280;47165;42.664;23.368;2022-08-03T00:29:11;95031.69;;;23.08;47.84
61292;BME280;47165;42.664;23.368;2022-08-03T00:31:36;95030.50;;;23.03;48.71
61292;BME280;47165;42.664;23.368;2022-08-03T00:34:02;95031.66;;;23.00;49.78
61292;BME280;47165;42.664;23.368;2022-08-03T00:36:27;95036.78;;;22.94;49.97
61292;BME280;47165;42.664;23.368;2022-08-03T00:38:53;95027.63;;;22.88;49.70
61292;BME280;47165;42.664;23.368;2022-08-03T00:41:19;95033.59;;;22.82;49.70
61292;BME280;47165;42.664;23.368;2022-08-03T00:43:44;95026.78;;;22.79;49.46
61292;BME280;47165;42.664;23.368;2022-08-03T00:46:11;95030.91;;;22.74;50.39
61292;BME280;47165;42.664;23.368;2022-08-03T00:48:37;95030.56;;;22.68;50.16
61292;BME280;47165;42.664;23.368;2022-08-03T00:51:03;95025.03;;;22.62;50.80
61292;BME280;47165;42.664;23.368;2022-08-03T00:53:28;95039.00;;;22.64;50.46
61292;BME280;47165;42.664;23.368;2022-08-03T00:55:54;95032.88;;;22.63;51.02
61292;BME280;47165;42.664;23.368;2022-08-03T00:58:20;95023.38;;;22.61;50.33
61292;BME280;47165;42.664;23.368;2022-08-03T01:00:45;95025.53;;;22.57;50.54
61292;BME280;47165;42.664;23.368;2022-08-03T01:03:10;95025.84;;;22.54;50.73
61292;BME280;47165;42.664;23.368;2022-08-03T01:06:03;95025.50;;;22.49;51.20
61292;BME280;47165;42.664;23.368;2022-08-03T01:13:33;95014.03;;;22.22;50.91
61292;BME280;47165;42.664;23.368;2022-08-03T01:16:08;95017.50;;;22.23;51.37
61292;BME280;47165;42.664;23.368;2022-08-03T01:18:51;95020.06;;;22.24;51.16
61292;BME280;47165;42.664;23.368;2022-08-03T01:21:49;95022.00;;;22.22;51.94
61292;BME280;47165;42.664;23.368;2022-08-03T01:27:14;95006.69;;;22.16;51.87
61292;BME280;47165;42.664;23.368;2022-08-03T01:30:06;95011.38;;;22.22;51.54
61292;BME280;47165;42.664;23.368;2022-08-03T01:32:47;95011.69;;;22.19;51.33
61292;BME280;47165;42.664;23.368;2022-08-03T01:35:21;95008.03;;;22.20;51.64
61292;BME280;47165;42.664;23.368;2022-08-03T01:37:56;95013.44;;;22.28;51.04
61292;BME280;47165;42.664;23.368;2022-08-03T01:40:24;95016.00;;;22.20;51.11
61292;BME280;47165;42.664;23.368;2022-08-03T01:42:53;95013.31;;;22.12;50.51
61292;BME280;47165;42.664;23.368;2022-08-03T01:45:21;95023.91;;;22.04;51.10
61292;BME280;47165;42.664;23.368;2022-08-03T01:47:48;95031.53;;;21.99;52.04
61292;BME280;47165;42.664;23.368;2022-08-03T01:50:14;95021.19;;;21.96;51.38
61292;BME280;47165;42.664;23.368;2022-08-03T01:52:43;95025.16;;;21.92;51.35
61292;BME280;47165;42.664;23.368;2022-08-03T01:55:11;95025.16;;;21.92;51.38
61292;BME280;47165;42.664;23.368;2022-08-03T01:57:39;95018.63;;;21.86;50.95
61292;BME280;47165;42.664;23.368;2022-08-03T02:00:05;95022.78;;;21.80;51.51
61292;BME280;47165;42.664;23.368;2022-08-03T02:02:35;95027.41;;;21.78;51.54
61292;BME280;47165;42.664;23.368;2022-08-03T02:05:05;95032.03;;;21.76;51.57
61292;BME280;47165;42.664;23.368;2022-08-03T02:07:32;95029.53;;;21.75;51.85
61292;BME280;47165;42.664;23.368;2022-08-03T02:09:59;95027.13;;;21.63;51.26
61292;BME280;47165;42.664;23.368;2022-08-03T02:12:26;95023.47;;;21.64;51.98
61292;BME280;47165;42.664;23.368;2022-08-03T02:14:53;95025.38;;;21.72;51.68
61292;BME280;47165;42.664;23.368;2022-08-03T02:17:21;95024.75;;;21.78;51.86
61292;BME280;47165;42.664;23.368;2022-08-03T02:19:49;95019.63;;;21.85;50.74
61292;BME280;47165;42.664;23.368;2022-08-03T02:22:15;95022.44;;;21.83;51.07
61292;BME280;47165;42.664;23.368;2022-08-03T02:24:41;95021.09;;;21.79;50.57
61292;BME280;47165;42.664;23.368;2022-08-03T02:27:16;95018.06;;;21.74;50.47
61292;BME280;47165;42.664;23.368;2022-08-03T02:29:43;95019.06;;;21.73;51.12
61292;BME280;47165;42.664;23.368;2022-08-03T02:32:16;95015.56;;;21.73;51.31
61292;BME280;47165;42.664;23.368;2022-08-03T02:34:47;95020.19;;;21.70;52.35
61292;BME280;47165;42.664;23.368;2022-08-03T02:37:17;95014.81;;;21.62;52.62
61292;BME280;47165;42.664;23.368;2022-08-03T02:39:43;95019.41;;;21.52;53.22
61292;BME280;47165;42.664;23.368;2022-08-03T02:42:13;95012.03;;;21.46;52.50
61292;BME280;47165;42.664;23.368;2022-08-03T02:44:40;95030.47;;;21.29;51.30
61292;BME280;47165;42.664;23.368;2022-08-03T02:47:12;95007.66;;;21.19;52.31
61292;BME280;47165;42.664;23.368;2022-08-03T02:49:38;95025.09;;;21.21;52.65
61292;BME280;47165;42.664;23.368;2022-08-03T02:52:08;95026.44;;;21.25;53.20
61292;BME280;47165;42.664;23.368;2022-08-03T02:54:35;95027.28;;;21.26;53.59
61292;BME280;47165;42.664;23.368;2022-08-03T02:57:01;95018.16;;;21.28;53.30
61292;BME280;47165;42.664;23.368;2022-08-03T02:59:27;95018.16;;;21.28;52.97
61292;BME280;47165;42.664;23.368;2022-08-03T03:01:56;95026.66;;;21.32;52.07
61292;BME280;47165;42.664;23.368;2022-08-03T03:04:23;95025.31;;;21.28;52.26
61292;BME280;47165;42.664;23.368;2022-08-03T03:06:49;95032.59;;;21.26;53.18
61292;BME280;47165;42.664;23.368;2022-08-03T03:09:16;95036.06;;;21.26;52.33
61292;BME280;47165;42.664;23.368;2022-08-03T03:11:43;95041.38;;;21.26;53.11
61292;BME280;47165;42.664;23.368;2022-08-03T03:14:10;95041.03;;;21.21;53.21
61292;BME280;47165;42.664;23.368;2022-08-03T03:16:38;95035.84;;;21.02;52.86
61292;BME280;47165;42.664;23.368;2022-08-03T03:19:04;95038.94;;;20.42;54.64
61292;BME280;47165;42.664;23.368;2022-08-03T03:21:30;95043.75;;;20.66;54.11
61292;BME280;47165;42.664;23.368;2022-08-03T03:23:58;95041.47;;;20.99;52.80
61292;BME280;47165;42.664;23.368;2022-08-03T03:26:24;95039.50;;;21.19;52.14
61292;BME280;47165;42.664;23.368;2022-08-03T03:28:50;95057.84;;;21.30;52.58
61292;BME280;47165;42.664;23.368;2022-08-03T03:31:15;95050.91;;;21.29;51.96
61292;BME280;47165;42.664;23.368;2022-08-03T03:33:41;95056.22;;;21.29;52.03
61292;BME280;47165;42.664;23.368;2022-08-03T03:36:07;95047.41;;;21.46;51.39
61292;BME280;47165;42.664;23.368;2022-08-03T03:38:33;95051.50;;;21.59;51.14
61292;BME280;47165;42.664;23.368;2022-08-03T03:40:59;95052.84;;;21.63;50.62
61292;BME280;47165;42.664;23.368;2022-08-03T03:43:24;95048.97;;;21.75;50.42
61292;BME280;47165;42.664;23.368;2022-08-03T03:45:50;95055.03;;;21.85;50.27
61292;BME280;47165;42.664;23.368;2022-08-03T03:48:18;95056.88;;;21.67;50.86
61292;BME280;47165;42.664;23.368;2022-08-03T03:50:44;95061.28;;;21.40;51.37
61292;BME280;47165;42.664;23.368;2022-08-03T03:53:11;95055.22;;;21.48;51.36
61292;BME280;47165;42.664;23.368;2022-08-03T03:55:37;95062.75;;;21.53;51.12
61292;BME280;47165;42.664;23.368;2022-08-03T03:58:03;95061.84;;;21.62;51.02
61292;BME280;47165;42.664;23.368;2022-08-03T04:00:29;95061.97;;;21.78;50.52
61292;BME280;47165;42.664;23.368;2022-08-03T04:02:55;95061.59;;;21.99;49.73
61292;BME280;47165;42.664;23.368;2022-08-03T04:05:21;95059.09;;;21.98;50.29
61292;BME280;47165;42.664;23.368;2022-08-03T04:08:08;95063.69;;;21.87;49.95
61292;BME280;47165;42.664;23.368;2022-08-03T04:11:23;95060.09;;;21.97;49.29
61292;BME280;47165;42.664;23.368;2022-08-03T04:14:07;95056.69;;;22.13;49.11
61292;BME280;47165;42.664;23.368;2022-08-03T04:16:36;95056.47;;;22.24;48.49
61292;BME280;47165;42.664;23.368;2022-08-03T04:19:29;95058.56;;;22.20;49.22
61292;BME280;47165;42.664;23.368;2022-08-03T04:21:59;95056.00;;;22.10;49.11
61292;BME280;47165;42.664;23.368;2022-08-03T04:24:32;95060.22;;;22.13;48.59
61292;BME280;47165;42.664;23.368;2022-08-03T04:27:03;95061.34;;;22.10;48.31
61292;BME280;47165;42.664;23.368;2022-08-03T04:29:32;95061.56;;;22.17;48.26
61292;BME280;47165;42.664;23.368;2022-08-03T04:31:59;95064.03;;;22.19;48.50
61292;BME280;47165;42.664;23.368;2022-08-03T04:34:26;95059.69;;;22.09;49.19
61292;BME280;47165;42.664;23.368;2022-08-03T04:36:57;95061.34;;;22.10;49.02
61292;BME280;47165;42.664;23.368;2022-08-03T04:39:25;95071.81;;;22.30;49.11
61292;BME280;47165;42.664;23.368;2022-08-03T04:41:57;95067.59;;;22.54;48.67
61292;BME280;47165;42.664;23.368;2022-08-03T04:44:25;95069.97;;;22.65;48.74
61292;BME280;47165;42.664;23.368;2022-08-03T04:46:51;95074.13;;;22.67;48.67
61292;BME280;47165;42.664;23.368;2022-08-03T04:49:19;95081.16;;;22.68;48.50
61292;BME280;47165;42.664;23.368;2022-08-03T04:51:45;95078.84;;;22.82;48.09
61292;BME280;47165;42.664;23.368;2022-08-03T04:54:12;95079.19;;;22.79;48.47
61292;BME280;47165;42.664;23.368;2022-08-03T04:56:41;95079.50;;;22.76;48.53
61292;BME280;47165;42.664;23.368;2022-08-03T04:59:08;95082.16;;;22.76;48.35
61292;BME280;47165;42.664;23.368;2022-08-03T05:01:33;95086.84;;;22.82;48.48
61292;BME280;47165;42.664;23.368;2022-08-03T05:03:59;95087.03;;;22.88;48.45
61292;BME280;47165;42.664;23.368;2022-08-03T05:06:24;95089.34;;;22.83;48.29
61292;BME280;47165;42.664;23.368;2022-08-03T05:08:50;95085.84;;;22.83;48.87
61292;BME280;47165;42.664;23.368;2022-08-03T05:11:16;95091.00;;;22.84;48.57
61292;BME280;47165;42.664;23.368;2022-08-03T05:13:45;95101.50;;;22.86;48.37
61292;BME280;47165;42.664;23.368;2022-08-03T05:16:11;95092.53;;;22.87;48.86
61292;BME280;47165;42.664;23.368;2022-08-03T05:18:38;95098.53;;;22.89;48.94
61292;BME280;47165;42.664;23.368;2022-08-03T05:21:04;95108.03;;;22.92;49.33
61292;BME280;47165;42.664;23.368;2022-08-03T05:23:29;95103.22;;;22.95;49.06
61292;BME280;47165;42.664;23.368;2022-08-03T05:25:55;95105.88;;;22.95;49.36
61292;BME280;47165;42.664;23.368;2022-08-03T05:28:21;95110.53;;;22.93;49.37
61292;BME280;47165;42.664;23.368;2022-08-03T05:30:46;95109.47;;;22.86;49.67
61292;BME280;47165;42.664;23.368;2022-08-03T05:33:11;95111.69;;;22.99;49.57
61292;BME280;47165;42.664;23.368;2022-08-03T05:35:37;95114.25;;;23.08;49.36
61292;BME280;47165;42.664;23.368;2022-08-03T05:38:04;95113.00;;;22.95;49.68
61292;BME280;47165;42.664;23.368;2022-08-03T05:40:30;95116.28;;;22.80;50.92
61292;BME280;47165;42.664;23.368;2022-08-03T05:42:55;95120.19;;;22.60;51.67
61292;BME280;47165;42.664;23.368;2022-08-03T05:45:22;95124.72;;;22.67;51.59
61292;BME280;47165;42.664;23.368;2022-08-03T05:47:47;95125.16;;;22.89;50.87
61292;BME280;47165;42.664;23.368;2022-08-03T05:50:16;95111.97;;;23.14;49.98
61292;BME280;47165;42.664;23.368;2022-08-03T05:52:42;95128.47;;;23.34;49.40
61292;BME280;47165;42.664;23.368;2022-08-03T05:55:09;95125.00;;;23.41;49.50
61292;BME280;47165;42.664;23.368;2022-08-03T05:57:35;95129.38;;;23.59;49.20
61292;BME280;47165;42.664;23.368;2022-08-03T06:00:03;95131.19;;;23.66;48.82
61292;BME280;47165;42.664;23.368;2022-08-03T06:02:29;95127.09;;;23.80;48.17
61292;BME280;47165;42.664;23.368;2022-08-03T06:04:55;95133.25;;;24.05;47.52
61292;BME280;47165;42.664;23.368;2022-08-03T06:07:20;95135.91;;;24.22;47.17
61292;BME280;47165;42.664;23.368;2022-08-03T06:09:46;95128.75;;;24.39;46.90
61292;BME280;47165;42.664;23.368;2022-08-03T06:12:11;95131.41;;;24.47;46.77
61292;BME280;47165;42.664;23.368;2022-08-03T06:14:36;95129.06;;;24.44;46.02
61292;BME280;47165;42.664;23.368;2022-08-03T06:17:02;95126.56;;;24.50;46.14
61292;BME280;47165;42.664;23.368;2022-08-03T06:19:27;95136.91;;;24.37;46.98
61292;BME280;47165;42.664;23.368;2022-08-03T06:21:53;95136.91;;;24.29;46.89
61292;BME280;47165;42.664;23.368;2022-08-03T06:24:18;95133.75;;;24.17;47.22
61292;BME280;47165;42.664;23.368;2022-08-03T06:26:43;95129.25;;;24.09;47.73
61292;BME280;47165;42.664;23.368;2022-08-03T06:29:09;95125.09;;;24.07;48.07
61292;BME280;47165;42.664;23.368;2022-08-03T06:31:34;95129.25;;;24.09;47.93
61292;BME280;47165;42.664;23.368;2022-08-03T06:34:04;95135.44;;;24.18;47.58
61292;BME280;47165;42.664;23.368;2022-08-03T06:36:30;95124.41;;;24.21;47.76
61292;BME280;47165;42.664;23.368;2022-08-03T06:38:58;95124.41;;;24.29;47.55
61292;BME280;47165;42.664;23.368;2022-08-03T06:41:27;95118.38;;;24.36;47.17
61292;BME280;47165;42.664;23.368;2022-08-03T06:43:54;95133.72;;;24.42;47.14
61292;BME280;47165;42.664;23.368;2022-08-03T06:46:19;95126.06;;;24.47;47.42
61292;BME280;47165;42.664;23.368;2022-08-03T06:48:45;95120.22;;;24.35;47.88
61292;BME280;47165;42.664;23.368;2022-08-03T06:51:11;95131.06;;;24.34;47.71
61292;BME280;47165;42.664;23.368;2022-08-03T06:53:36;95125.09;;;24.23;46.99
61292;BME280;47165;42.664;23.368;2022-08-03T06:56:03;95119.06;;;24.29;47.29
61292;BME280;47165;42.664;23.368;2022-08-03T06:58:29;95122.22;;;24.41;46.85
61292;BME280;47165;42.664;23.368;2022-08-03T07:00:54;95122.06;;;24.51;47.83
61292;BME280;47165;42.664;23.368;2022-08-03T07:03:20;95118.53;;;24.59;47.50
61292;BME280;47165;42.664;23.368;2022-08-03T07:05:45;95111.69;;;24.64;47.52
61292;BME280;47165;42.664;23.368;2022-08-03T07:08:11;95117.66;;;24.75;47.28
61292;BME280;47165;42.664;23.368;2022-08-03T07:10:41;95119.81;;;24.79;46.68
61292;BME280;47165;42.664;23.368;2022-08-03T07:13:06;95121.63;;;24.87;46.77
61292;BME280;47165;42.664;23.368;2022-08-03T07:15:33;95120.75;;;24.95;46.96
61292;BME280;47165;42.664;23.368;2022-08-03T07:17:58;95112.22;;;24.99;47.29
61292;BME280;47165;42.664;23.368;2022-08-03T07:20:24;95122.59;;;25.02;45.99
61292;BME280;47165;42.664;23.368;2022-08-03T07:22:49;95120.91;;;25.01;45.67
61292;BME280;47165;42.664;23.368;2022-08-03T07:25:14;95126.56;;;25.06;46.33
61292;BME280;47165;42.664;23.368;2022-08-03T07:27:44;95123.69;;;25.08;45.53
61292;BME280;47165;42.664;23.368;2022-08-03T07:30:11;95120.53;;;25.13;45.72
61292;BME280;47165;42.664;23.368;2022-08-03T07:32:36;95124.31;;;25.18;44.56
61292;BME280;47165;42.664;23.368;2022-08-03T07:35:04;95124.19;;;25.12;44.26
61292;BME280;47165;42.664;23.368;2022-08-03T07:37:29;95130.19;;;25.14;44.68
61292;BME280;47165;42.664;23.368;2022-08-03T07:39:55;95117.31;;;25.17;45.13
61292;BME280;47165;42.664;23.368;2022-08-03T07:42:20;95118.88;;;25.03;44.93
61292;BME280;47165;42.664;23.368;2022-08-03T07:44:47;95117.94;;;25.59;43.41
61292;BME280;47165;42.664;23.368;2022-08-03T07:47:17;95125.00;;;26.44;41.98
61292;BME280;47165;42.664;23.368;2022-08-03T07:49:42;95109.78;;;27.04;40.08
61292;BME280;47165;42.664;23.368;2022-08-03T07:52:08;95116.50;;;27.44;38.57
61292;BME280;47165;42.664;23.368;2022-08-03T07:54:52;95121.03;;;28.02;38.23
61292;BME280;47165;42.664;23.368;2022-08-03T07:57:17;95115.47;;;28.03;37.21
61292;BME280;47165;42.664;23.368;2022-08-03T07:59:45;95112.84;;;28.10;37.77
61292;BME280;47165;42.664;23.368;2022-08-03T08:02:10;95120.88;;;28.32;37.18
61292;BME280;47165;42.664;23.368;2022-08-03T08:04:35;95113.44;;;28.55;36.89
61292;BME280;47165;42.664;23.368;2022-08-03T08:07:01;95118.09;;;28.75;37.30
61292;BME280;47165;42.664;23.368;2022-08-03T08:09:26;95115.03;;;28.78;35.00
61292;BME280;47165;42.664;23.368;2022-08-03T08:11:52;95124.94;;;28.77;35.15
61292;BME280;47165;42.664;23.368;2022-08-03T08:14:17;95123.78;;;28.58;35.22
61292;BME280;47165;42.664;23.368;2022-08-03T08:16:42;95123.94;;;28.50;34.74
61292;BME280;47165;42.664;23.368;2022-08-03T08:19:08;95123.81;;;28.65;34.38
61292;BME280;47165;42.664;23.368;2022-08-03T08:21:33;95123.91;;;28.78;34.48
61292;BME280;47165;42.664;23.368;2022-08-03T08:23:59;95118.22;;;28.95;34.21
61292;BME280;47165;42.664;23.368;2022-08-03T08:26:24;95114.56;;;29.02;34.54
61292;BME280;47165;42.664;23.368;2022-08-03T08:28:50;95115.53;;;29.29;33.89
61292;BME280;47165;42.664;23.368;2022-08-03T08:31:17;95115.41;;;29.58;34.02
61292;BME280;47165;42.664;23.368;2022-08-03T08:33:42;95111.47;;;29.60;33.35
61292;BME280;47165;42.664;23.368;2022-08-03T08:36:08;95105.66;;;29.57;31.83
61292;BME280;47165;42.664;23.368;2022-08-03T08:38:34;95114.59;;;29.64;32.25
61292;BME280;47165;42.664;23.368;2022-08-03T08:40:59;95111.06;;;29.57;32.55
61292;BME280;47165;42.664;23.368;2022-08-03T08:43:25;95101.97;;;29.64;32.57
61292;BME280;47165;42.664;23.368;2022-08-03T08:45:53;95099.91;;;29.60;33.20
61292;BME280;47165;42.664;23.368;2022-08-03T08:48:23;95107.00;;;29.87;33.29
61292;BME280;47165;42.664;23.368;2022-08-03T08:50:52;95099.56;;;29.89;32.13
61292;BME280;47165;42.664;23.368;2022-08-03T08:53:19;95109.13;;;29.99;31.79
61292;BME280;47165;42.664;23.368;2022-08-03T08:55:46;95105.38;;;30.00;32.44
61292;BME280;47165;42.664;23.368;2022-08-03T08:58:13;95096.66;;;29.84;32.53
61292;BME280;47165;42.664;23.368;2022-08-03T09:00:40;95102.69;;;29.86;32.92
61292;BME280;47165;42.664;23.368;2022-08-03T09:03:05;95097.94;;;30.15;31.64
61292;BME280;47165;42.664;23.368;2022-08-03T09:05:31;95094.25;;;30.30;30.83
61292;BME280;47165;42.664;23.368;2022-08-03T09:07:57;95095.28;;;30.42;30.90
61292;BME280;47165;42.664;23.368;2022-08-03T09:10:22;95098.34;;;30.25;30.57
61292;BME280;47165;42.664;23.368;2022-08-03T09:12:50;95089.88;;;30.42;31.10
61292;BME280;47165;42.664;23.368;2022-08-03T09:15:26;95088.19;;;30.47;30.55
61292;BME280;47165;42.664;23.368;2022-08-03T09:17:54;95089.44;;;30.58;30.82
61292;BME280;47165;42.664;23.368;2022-08-03T09:20:22;95089.19;;;30.80;31.09
61292;BME280;47165;42.664;23.368;2022-08-03T09:22:52;95095.41;;;30.87;30.86
61292;BME280;47165;42.664;23.368;2022-08-03T09:27:52;95089.66;;;30.37;31.50
61292;BME280;47165;42.664;23.368;2022-08-03T09:30:18;95094.63;;;30.13;31.91
61292;BME280;47165;42.664;23.368;2022-08-03T09:32:44;95092.09;;;29.98;31.57
61292;BME280;47165;42.664;23.368;2022-08-03T09:35:11;95090.03;;;29.94;31.51
61292;BME280;47165;42.664;23.368;2022-08-03T09:37:38;95079.81;;;29.69;30.95
61292;BME280;47165;42.664;23.368;2022-08-03T09:40:04;95091.59;;;29.61;33.18
61292;BME280;47165;42.664;23.368;2022-08-03T09:42:30;95093.22;;;29.42;31.85
61292;BME280;47165;42.664;23.368;2022-08-03T09:44:59;95089.28;;;29.45;33.34
61292;BME280;47165;42.664;23.368;2022-08-03T09:47:32;95089.50;;;29.43;33.11
61292;BME280;47165;42.664;23.368;2022-08-03T09:50:07;95091.59;;;29.61;33.70
61292;BME280;47165;42.664;23.368;2022-08-03T09:52:38;95090.44;;;29.77;35.70
61292;BME280;47165;42.664;23.368;2022-08-03T09:55:11;95080.09;;;29.81;32.10
61292;BME280;47165;42.664;23.368;2022-08-03T09:57:37;95091.69;;;29.88;32.93
61292;BME280;47165;42.664;23.368;2022-08-03T10:00:12;95086.53;;;30.00;33.35
61292;BME280;47165;42.664;23.368;2022-08-03T10:02:40;95084.88;;;30.05;32.48
61292;BME280;47165;42.664;23.368;2022-08-03T10:05:06;95087.75;;;30.11;32.64
61292;BME280;47165;42.664;23.368;2022-08-03T10:07:48;95081.78;;;30.22;32.72
61292;BME280;47165;42.664;23.368;2022-08-03T10:10:16;95069.13;;;30.29;32.10
61292;BME280;47165;42.664;23.368;2022-08-03T10:12:42;95067.28;;;30.36;32.77
61292;BME280;47165;42.664;23.368;2022-08-03T10:15:09;95078.06;;;30.43;33.42
61292;BME280;47165;42.664;23.368;2022-08-03T10:17:36;95075.16;;;30.44;32.64
61292;BME280;47165;42.664;23.368;2022-08-03T10:20:03;95074.94;;;30.46;31.29
61292;BME280;47165;42.664;23.368;2022-08-03T10:22:32;95068.72;;;30.52;31.45
61292;BME280;47165;42.664;23.368;2022-08-03T10:25:28;95065.16;;;30.72;31.79
61292;BME280;47165;42.664;23.368;2022-08-03T10:27:55;95068.84;;;30.84;32.54
61292;BME280;47165;42.664;23.368;2022-08-03T10:30:23;95067.81;;;30.78;30.03
61292;BME280;47165;42.664;23.368;2022-08-03T10:32:55;95063.88;;;30.94;30.13
61292;BME280;47165;42.664;23.368;2022-08-03T10:35:24;95055.97;;;30.99;28.96
61292;BME280;47165;42.664;23.368;2022-08-03T10:38:03;95062.56;;;31.10;29.90
61292;BME280;47165;42.664;23.368;2022-08-03T10:40:33;95055.88;;;31.26;30.79
61292;BME280;47165;42.664;23.368;2022-08-03T10:43:11;95049.72;;;31.05;29.63
61292;BME280;47165;42.664;23.368;2022-08-03T10:45:42;95053.47;;;31.04;29.89
61292;BME280;47165;42.664;23.368;2022-08-03T10:48:08;95051.84;;;31.48;30.89
61292;BME280;47165;42.664;23.368;2022-08-03T10:50:34;95052.91;;;31.73;30.31
61292;BME280;47165;42.664;23.368;2022-08-03T10:53:04;95055.06;;;31.96;29.89
61292;BME280;47165;42.664;23.368;2022-08-03T10:55:36;95051.00;;;32.12;29.57
61292;BME280;47165;42.664;23.368;2022-08-03T10:58:47;95043.66;;;31.62;29.14
61292;BME280;47165;42.664;23.368;2022-08-03T11:01:17;95048.44;;;31.92;29.83
61292;BME280;47165;42.664;23.368;2022-08-03T11:06:19;95030.34;;;33.23;28.90
61292;BME280;47165;42.664;23.368;2022-08-03T11:08:47;95036.44;;;33.67;27.14
61292;BME280;47165;42.664;23.368;2022-08-03T11:16:22;95028.03;;;34.11;26.17
61292;BME280;47165;42.664;23.368;2022-08-03T11:18:58;95023.28;;;33.82;25.96
61292;BME280;47165;42.664;23.368;2022-08-03T11:29:55;95016.09;;;33.76;26.02
61292;BME280;47165;42.664;23.368;2022-08-03T11:35:26;95009.53;;;33.96;24.32
61292;BME280;47165;42.664;23.368;2022-08-03T11:40:45;94990.63;;;34.19;25.32
61292;BME280;47165;42.664;23.368;2022-08-03T11:48:27;94989.75;;;34.78;25.18
61292;BME280;47165;42.664;23.368;2022-08-03T11:50:52;94992.69;;;34.88;25.62
61292;BME280;47165;42.664;23.368;2022-08-03T11:53:18;94992.38;;;34.73;25.55
61292;BME280;47165;42.664;23.368;2022-08-03T11:55:45;95003.06;;;34.56;25.88
61292;BME280;47165;42.664;23.368;2022-08-03T11:58:17;94990.63;;;34.19;25.79
61292;BME280;47165;42.664;23.368;2022-08-03T12:00:43;94992.16;;;33.73;26.00
61292;BME280;47165;42.664;23.368;2022-08-03T12:03:11;94994.88;;;33.73;26.08
61292;BME280;47165;42.664;23.368;2022-08-03T12:05:38;94989.72;;;33.83;25.76
61292;BME280;47165;42.664;23.368;2022-08-03T12:08:04;94993.50;;;33.82;26.31
61292;BME280;47165;42.664;23.368;2022-08-03T12:10:30;94994.94;;;33.97;26.74
61292;BME280;47165;42.664;23.368;2022-08-03T12:12:58;94983.72;;;33.93;26.05
61292;BME280;47165;42.664;23.368;2022-08-03T12:15:25;94985.88;;;34.03;25.45
61292;BME280;47165;42.664;23.368;2022-08-03T12:17:51;94982.91;;;33.93;26.10
61292;BME280;47165;42.664;23.368;2022-08-03T12:20:22;94989.66;;;34.49;26.82
61292;BME280;47165;42.664;23.368;2022-08-03T12:22:48;94981.88;;;35.17;25.42
61292;BME280;47165;42.664;23.368;2022-08-03T12:25:24;94984.81;;;35.44;23.74
61292;BME280;47165;42.664;23.368;2022-08-03T12:27:51;94978.00;;;35.41;23.42
61292;BME280;47165;42.664;23.368;2022-08-03T12:30:18;94982.56;;;35.24;23.40
61292;BME280;47165;42.664;23.368;2022-08-03T12:32:44;94977.06;;;34.19;24.17
61292;BME280;47165;42.664;23.368;2022-08-03T12:35:10;94984.41;;;33.77;25.95
61292;BME280;47165;42.664;23.368;2022-08-03T12:37:47;94986.41;;;33.81;26.92
61292;BME280;47165;42.664;23.368;2022-08-03T12:40:13;94980.31;;;33.98;26.24
61292;BME280;47165;42.664;23.368;2022-08-03T12:42:40;94978.34;;;34.29;25.92
61292;BME280;47165;42.664;23.368;2022-08-03T12:47:59;94978.59;;;35.43;22.60
61292;BME280;47165;42.664;23.368;2022-08-03T12:50:30;94972.09;;;35.73;22.64
61292;BME280;47165;42.664;23.368;2022-08-03T12:52:56;94974.00;;;35.90;22.11
61292;BME280;47165;42.664;23.368;2022-08-03T12:55:24;94969.88;;;36.21;22.71
61292;BME280;47165;42.664;23.368;2022-08-03T12:57:52;94959.88;;;36.82;22.39
61292;BME280;47165;42.664;23.368;2022-08-03T13:00:18;94966.50;;;37.63;21.52
61292;BME280;47165;42.664;23.368;2022-08-03T13:02:44;94955.13;;;38.03;21.62
61292;BME280;47165;42.664;23.368;2022-08-03T13:05:11;94958.19;;;38.50;21.27
61292;BME280;47165;42.664;23.368;2022-08-03T13:07:41;94956.94;;;38.68;20.12
61292;BME280;47165;42.664;23.368;2022-08-03T13:10:07;94948.75;;;38.68;20.95
61292;BME280;47165;42.664;23.368;2022-08-03T13:12:45;94954.06;;;38.04;19.81
61292;BME280;47165;42.664;23.368;2022-08-03T13:15:11;94951.84;;;37.69;20.42
61292;BME280;47165;42.664;23.368;2022-08-03T13:17:36;94947.16;;;38.29;20.34
61292;BME280;47165;42.664;23.368;2022-08-03T13:20:02;94950.66;;;37.33;20.59
61292;BME280;47165;42.664;23.368;2022-08-03T13:22:27;94966.94;;;37.55;20.79
61292;BME280;47165;42.664;23.368;2022-08-03T13:24:54;94953.66;;;37.09;20.79
61292;BME280;47165;42.664;23.368;2022-08-03T13:27:23;94955.44;;;36.98;21.50
61292;BME280;47165;42.664;23.368;2022-08-03T13:29:49;94960.53;;;35.83;22.48
61292;BME280;47165;42.664;23.368;2022-08-03T13:32:15;94955.81;;;35.61;22.88
61292;BME280;47165;42.664;23.368;2022-08-03T13:34:40;94949.78;;;34.61;24.35